Time;durP1;ratioP1;P1;durP2;ratioP2;P2;SDS_P1;SDS_P2;PMS_P1;PMS_P2;Temp;Humidity;BMP_temperature;BMP_pressure;BME280_temperature;BME280_humidity;BME280_pressure;Samples;Min_cycle;Max_cycle;Signal;HPM_P1;HPM_P2
2022/10/29 00:01:30;;;;;;;64.28;24.52;;;;;;;;;;6314021;22;20358;-93
2022/10/29 00:03:57;;;;;;;68.70;24.60;;;;;;;;;;6313799;22;20010;-94
2022/10/29 00:06:24;;;;;;;55.78;24.77;;;;;;;;;;6341420;22;19999;-94
2022/10/29 00:08:53;;;;;;;54.17;25.30;;;;;;;;;;6312968;22;20019;-95
2022/10/29 00:11:20;;;;;;;50.10;20.27;;;;;;;;;;6313255;22;20003;-92
2022/10/29 00:13:48;;;;;;;54.83;22.73;;;;;;;;;;6312922;22;20003;-94
2022/10/29 00:16:26;;;;;;;53.83;23.33;;;;;;;;;;6313775;22;20003;-93
2022/10/29 00:18:52;;;;;;;49.55;22.40;;;;;;;;;;6314074;22;20021;-95
2022/10/29 00:21:21;;;;;;;48.65;22.00;;;;;;;;;;6314645;22;20022;-95
2022/10/29 00:23:48;;;;;;;65.53;24.42;;;;;;;;;;6318077;22;20029;-92
2022/10/29 00:26:15;;;;;;;47.22;21.42;;;;;;;;;;6333469;22;19995;-93
2022/10/29 00:28:44;;;;;;;52.72;23.65;;;;;;;;;;6321282;22;20424;-94
2022/10/29 00:31:14;;;;;;;50.92;22.73;;;;;;;;;;6315003;22;20014;-94
2022/10/29 00:33:41;;;;;;;45.05;22.23;;;;;;;;;;6336780;22;19999;-92
2022/10/29 00:36:09;;;;;;;55.83;23.83;;;;;;;;;;6339985;22;20014;-94
2022/10/29 00:38:35;;;;;;;51.72;23.65;;;;;;;;;;6322492;22;20003;-96
2022/10/29 00:41:05;;;;;;;50.38;22.75;;;;;;;;;;6322088;22;19999;-96
2022/10/29 00:43:38;;;;;;;45.20;21.27;;;;;;;;;;6313100;22;20014;-94
2022/10/29 00:46:07;;;;;;;52.80;21.38;;;;;;;;;;6313948;22;20506;-95
2022/10/29 00:48:39;;;;;;;44.50;21.58;;;;;;;;;;6314330;22;20442;-96
2022/10/29 00:51:06;;;;;;;47.10;22.20;;;;;;;;;;6312788;22;20007;-96
2022/10/29 00:53:34;;;;;;;51.17;21.67;;;;;;;;;;6313026;22;19999;-96
2022/10/29 00:56:00;;;;;;;49.55;21.10;;;;;;;;;;6313792;22;20077;-95
2022/10/29 00:58:29;;;;;;;41.45;20.95;;;;;;;;;;6313798;22;20007;-95
2022/10/29 01:00:58;;;;;;;48.60;21.70;;;;;;;;;;6313316;22;19999;-96
2022/10/29 01:03:25;;;;;;;42.33;22.23;;;;;;;;;;6340921;22;20071;-96
2022/10/29 01:05:52;;;;;;;49.63;21.48;;;;;;;;;;6313507;22;20015;-96
2022/10/29 01:08:24;;;;;;;45.13;22.45;;;;;;;;;;6313376;22;20049;-96
2022/10/29 01:11:02;;;;;;;45.35;21.90;;;;;;;;;;6314126;22;20077;-96
2022/10/29 01:13:40;;;;;;;59.05;20.85;;;;;;;;;;6318620;22;19986;-96
2022/10/29 01:16:23;;;;;;;42.63;20.88;;;;;;;;;;6339984;22;20007;-94
2022/10/29 01:18:54;;;;;;;42.78;20.48;;;;;;;;;;6314891;22;20297;-95
2022/10/29 01:21:41;;;;;;;51.13;22.25;;;;;;;;;;6315940;22;20301;-95
2022/10/29 01:24:28;;;;;;;51.78;21.05;;;;;;;;;;6315096;22;20012;-96
2022/10/29 01:27:16;;;;;;;61.67;20.42;;;;;;;;;;6343067;22;19998;-96
2022/10/29 01:30:02;;;;;;;59.15;20.75;;;;;;;;;;6315404;22;20003;-96
2022/10/29 01:32:31;;;;;;;49.58;21.90;;;;;;;;;;6314724;22;20003;-95
2022/10/29 01:35:12;;;;;;;;;;;;;;;;;;;;;
2022/10/29 01:37:41;;;;;;;48.35;21.13;;;;;;;;;;6342980;22;20086;-96
2022/10/29 01:40:13;;;;;;;54.15;20.00;;;;;;;;;;6315095;22;20014;-96
2022/10/29 01:42:52;;;;;;;56.42;22.00;;;;;;;;;;6315330;22;20002;-96
2022/10/29 01:45:30;;;;;;;59.90;21.88;;;;;;;;;;6315561;22;20057;-94
2022/10/29 01:48:12;;;;;;;56.10;20.33;;;;;;;;;;6314891;22;20431;-95
2022/10/29 01:50:39;;;;;;;42.08;20.67;;;;;;;;;;6315134;22;20013;-94
2022/10/29 01:53:08;;;;;;;75.40;25.33;;;;;;;;;;6315564;22;20032;-94
2022/10/29 01:55:37;;;;;;;84.90;22.33;;;;;;;;;;6315533;22;20007;-96
2022/10/29 01:58:06;;;;;;;54.47;20.92;;;;;;;;;;6315245;22;19999;-96
2022/10/29 02:00:54;;;;;;;73.68;22.42;;;;;;;;;;6315170;22;20024;-95
2022/10/29 02:03:41;;;;;;;78.20;23.50;;;;;;;;;;6314750;22;20038;-96
2022/10/29 02:06:19;;;;;;;68.70;22.38;;;;;;;;;;6315622;22;20022;-95
2022/10/29 02:08:57;;;;;;;63.40;21.30;;;;;;;;;;6314466;22;20015;-96
2022/10/29 02:11:44;;;;;;;121.07;23.17;;;;;;;;;;6315182;22;20011;-94
2022/10/29 02:14:26;;;;;;;91.32;24.00;;;;;;;;;;6314620;22;20003;-95
2022/10/29 02:17:00;;;;;;;72.10;23.70;;;;;;;;;;6314450;22;20010;-96
2022/10/29 02:19:36;;;;;;;95.03;24.00;;;;;;;;;;6316475;22;20005;-96
2022/10/29 02:22:04;;;;;;;136.10;23.98;;;;;;;;;;6314787;22;20039;-94
2022/10/29 02:24:30;;;;;;;66.55;21.42;;;;;;;;;;6314945;22;20120;-95
2022/10/29 02:26:56;;;;;;;108.32;22.55;;;;;;;;;;6315359;22;20073;-95
2022/10/29 02:29:22;;;;;;;79.95;22.95;;;;;;;;;;6314143;22;20447;-95
2022/10/29 02:31:51;;;;;;;71.57;21.55;;;;;;;;;;6314916;22;20040;-96
2022/10/29 02:34:20;;;;;;;73.35;23.38;;;;;;;;;;6324640;22;20009;-95
2022/10/29 02:36:46;;;;;;;74.55;22.23;;;;;;;;;;6337155;22;19987;-93
2022/10/29 02:39:17;;;;;;;70.20;21.92;;;;;;;;;;6320641;22;20023;-96
2022/10/29 02:41:46;;;;;;;54.67;21.35;;;;;;;;;;6316774;22;20420;-96
2022/10/29 02:44:12;;;;;;;69.13;23.40;;;;;;;;;;6314972;22;20085;-96
2022/10/29 02:46:40;;;;;;;53.90;21.00;;;;;;;;;;6314603;22;20489;-95
2022/10/29 02:49:07;;;;;;;48.10;22.60;;;;;;;;;;6315499;22;20370;-96
2022/10/29 02:51:38;;;;;;;45.78;23.08;;;;;;;;;;6314800;22;20007;-94
2022/10/29 02:54:05;;;;;;;47.20;20.35;;;;;;;;;;6314232;22;20002;-96
2022/10/29 02:56:31;;;;;;;50.92;22.27;;;;;;;;;;6314201;22;20431;-96
2022/10/29 02:59:05;;;;;;;43.05;20.33;;;;;;;;;;6314361;22;20007;-95
2022/10/29 03:01:31;;;;;;;45.33;21.58;;;;;;;;;;6314558;22;20032;-93
2022/10/29 03:04:00;;;;;;;42.17;19.08;;;;;;;;;;6314385;22;20002;-96
2022/10/29 03:06:28;;;;;;;42.78;20.08;;;;;;;;;;6313981;22;20006;-96
2022/10/29 03:09:04;;;;;;;41.70;19.10;;;;;;;;;;6314010;22;20011;-95
2022/10/29 03:11:30;;;;;;;36.95;18.77;;;;;;;;;;6314550;22;20015;-96
2022/10/29 03:13:57;;;;;;;46.15;20.08;;;;;;;;;;6314432;22;20477;-95
2022/10/29 03:16:23;;;;;;;44.55;21.40;;;;;;;;;;6314099;22;20003;-96
2022/10/29 03:18:54;;;;;;;45.63;21.02;;;;;;;;;;6314480;22;20006;-96
2022/10/29 03:21:20;;;;;;;44.72;20.00;;;;;;;;;;6314119;22;20014;-96
2022/10/29 03:23:46;;;;;;;40.03;18.83;;;;;;;;;;6314362;22;20027;-94
2022/10/29 03:26:12;;;;;;;38.20;18.27;;;;;;;;;;6314034;22;20050;-96
2022/10/29 03:28:39;;;;;;;38.13;19.55;;;;;;;;;;6314986;22;20090;-96
2022/10/29 03:31:05;;;;;;;35.58;17.75;;;;;;;;;;6315356;22;20002;-95
2022/10/29 03:33:39;;;;;;;37.33;19.02;;;;;;;;;;6314047;22;20014;-96
2022/10/29 03:36:06;;;;;;;42.72;19.73;;;;;;;;;;6314839;22;20002;-95
2022/10/29 03:38:33;;;;;;;41.58;18.83;;;;;;;;;;6314513;22;20003;-95
2022/10/29 03:41:07;;;;;;;37.33;17.30;;;;;;;;;;6314679;22;20525;-96
2022/10/29 03:43:33;;;;;;;35.08;18.55;;;;;;;;;;6313899;22;20059;-96
2022/10/29 03:46:02;;;;;;;34.83;17.15;;;;;;;;;;6314054;22;20042;-96
2022/10/29 03:48:30;;;;;;;37.75;19.83;;;;;;;;;;6314369;22;20435;-96
2022/10/29 03:50:58;;;;;;;41.13;17.55;;;;;;;;;;6314092;22;20007;-96
2022/10/29 03:53:24;;;;;;;41.03;17.95;;;;;;;;;;6314212;22;20385;-96
2022/10/29 03:55:51;;;;;;;40.97;18.33;;;;;;;;;;6314215;22;20030;-95
2022/10/29 03:58:18;;;;;;;36.53;17.63;;;;;;;;;;6340527;22;20074;-93
2022/10/29 04:00:52;;;;;;;39.90;18.60;;;;;;;;;;6337035;22;20007;-95
2022/10/29 04:03:28;;;;;;;38.55;17.92;;;;;;;;;;6323878;22;20009;-94
2022/10/29 04:05:57;;;;;;;36.63;17.10;;;;;;;;;;6319084;22;20038;-96
2022/10/29 04:08:25;;;;;;;40.38;19.13;;;;;;;;;;6313914;22;20010;-95
2022/10/29 04:10:54;;;;;;;42.13;19.08;;;;;;;;;;6314013;22;20006;-95
2022/10/29 04:13:21;;;;;;;43.90;19.45;;;;;;;;;;6314632;22;19999;-96
2022/10/29 04:15:47;;;;;;;45.28;20.80;;;;;;;;;;6314131;22;20003;-96
2022/10/29 04:18:13;;;;;;;43.58;20.50;;;;;;;;;;6313672;22;20014;-96
2022/10/29 04:20:42;;;;;;;42.03;17.80;;;;;;;;;;6313094;22;20002;-95
2022/10/29 04:23:08;;;;;;;37.30;16.42;;;;;;;;;;6314061;22;20010;-96
2022/10/29 04:25:55;;;;;;;35.60;17.67;;;;;;;;;;6313801;22;20022;-96
2022/10/29 04:28:24;;;;;;;36.08;16.13;;;;;;;;;;6313639;22;20007;-96
2022/10/29 04:30:51;;;;;;;35.75;16.95;;;;;;;;;;6314176;22;20014;-95
2022/10/29 04:33:27;;;;;;;34.78;17.00;;;;;;;;;;6314949;22;20002;-96
2022/10/29 04:36:04;;;;;;;40.45;15.18;;;;;;;;;;6315702;22;20002;-95
2022/10/29 04:38:30;;;;;;;31.85;16.65;;;;;;;;;;6314688;22;20002;-96
2022/10/29 04:41:00;;;;;;;30.77;15.85;;;;;;;;;;6314004;22;20013;-95
2022/10/29 04:43:26;;;;;;;34.47;16.05;;;;;;;;;;6318994;22;20055;-93
2022/10/29 04:46:03;;;;;;;31.50;16.20;;;;;;;;;;6337104;22;20045;-94
2022/10/29 04:48:32;;;;;;;26.48;13.52;;;;;;;;;;6319581;22;20005;-95
2022/10/29 04:51:00;;;;;;;32.05;15.77;;;;;;;;;;6314596;22;20493;-96
2022/10/29 04:53:29;;;;;;;34.00;16.73;;;;;;;;;;6315598;22;20052;-96
2022/10/29 04:56:00;;;;;;;27.25;14.25;;;;;;;;;;6316088;22;20026;-96
2022/10/29 04:58:26;;;;;;;27.35;14.32;;;;;;;;;;6315639;22;20007;-96
2022/10/29 05:00:52;;;;;;;29.35;14.77;;;;;;;;;;6316480;22;20443;-95
2022/10/29 05:03:19;;;;;;;23.70;12.65;;;;;;;;;;6315226;22;20056;-95
2022/10/29 05:05:47;;;;;;;27.38;12.98;;;;;;;;;;6315371;22;20007;-94
2022/10/29 05:08:14;;;;;;;25.58;13.80;;;;;;;;;;6315488;22;20014;-93
2022/10/29 05:10:42;;;;;;;25.88;14.15;;;;;;;;;;6342975;22;20328;-93
2022/10/29 05:13:10;;;;;;;33.28;13.65;;;;;;;;;;6315305;22;20455;-95
2022/10/29 05:15:37;;;;;;;27.70;14.18;;;;;;;;;;6315714;22;20005;-95
2022/10/29 05:18:03;;;;;;;24.38;13.05;;;;;;;;;;6315958;22;20087;-92
2022/10/29 05:20:32;;;;;;;25.83;13.98;;;;;;;;;;6315579;22;20078;-94
2022/10/29 05:23:05;;;;;;;23.95;13.27;;;;;;;;;;6314468;22;20003;-92
2022/10/29 05:25:31;;;;;;;;;;;;;;;;;;6316147;22;20022;-94
2022/10/29 05:28:04;;;;;;;27.83;12.98;;;;;;;;;;6315813;22;20409;-93
2022/10/29 05:30:32;;;;;;;28.92;13.85;;;;;;;;;;6342622;22;20013;-93
2022/10/29 05:32:58;;;;;;;25.27;13.27;;;;;;;;;;6315333;22;20033;-91
2022/10/29 05:35:25;;;;;;;28.42;13.85;;;;;;;;;;6315249;22;20072;-92
2022/10/29 05:37:52;;;;;;;23.63;13.07;;;;;;;;;;6314789;22;20041;-94
2022/10/29 05:46:40;;;;;;;22.52;12.30;;;;;;;;;;6331402;22;20053;-96
2022/10/29 05:49:12;;;;;;;24.08;12.20;;;;;;;;;;6319600;22;20059;-95
2022/10/29 05:52:16;;;;;;;29.05;14.35;;;;;;;;;;6317363;22;20432;-95
2022/10/29 05:55:07;;;;;;;26.20;14.27;;;;;;;;;;6310123;22;20031;-96
2022/10/29 06:00:46;;;;;;;24.13;13.43;;;;;;;;;;6344078;22;20419;-96
2022/10/29 06:03:13;;;;;;;24.80;12.52;;;;;;;;;;6317378;22;20305;-94
2022/10/29 06:05:49;;;;;;;29.48;15.02;;;;;;;;;;6319283;22;20038;-95
2022/10/29 06:17:04;;;;;;;22.63;12.35;;;;;;;;;;6283797;22;20014;-94
2022/10/29 06:19:30;;;;;;;28.65;13.57;;;;;;;;;;6317160;22;20010;-95
2022/10/29 06:25:06;;;;;;;27.85;14.43;;;;;;;;;;6263329;22;20020;-96
2022/10/29 06:33:49;;;;;;;28.50;14.90;;;;;;;;;;6231087;23;20008;-95
2022/10/29 06:36:22;;;;;;;;;;;;;;;;;;6227176;22;20003;-96
2022/10/29 06:38:59;;;;;;;27.70;12.82;;;;;;;;;;6282503;22;19899;-96
2022/10/29 06:41:31;;;;;;;26.48;13.15;;;;;;;;;;6281177;22;19999;-95
2022/10/29 06:43:59;;;;;;;30.08;14.35;;;;;;;;;;6279412;22;20007;-95
2022/10/29 06:49:12;;;;;;;32.20;16.65;;;;;;;;;;6265431;22;20083;-96
2022/10/29 06:51:38;;;;;;;32.60;16.33;;;;;;;;;;6285991;22;20007;-95
2022/10/29 06:54:04;;;;;;;28.67;14.25;;;;;;;;;;6286155;22;20433;-93
2022/10/29 06:56:33;;;;;;;25.90;12.90;;;;;;;;;;6286264;22;20055;-95
2022/10/29 06:59:28;;;;;;;;;;;;;;;;;;;;;
2022/10/29 07:08:34;;;;;;;;;;;;;;;;;;;;;
2022/10/29 07:11:10;;;;;;;28.05;14.55;;;;;;;;;;6271884;22;20011;-96
2022/10/29 07:13:59;;;;;;;23.48;12.65;;;;;;;;;;6286675;22;20006;-96
2022/10/29 07:17:19;;;;;;;;;;;;;;;;;;;;;
2022/10/29 07:20:19;;;;;;;18.90;11.30;;;;;;;;;;6079215;23;20021;-96
2022/10/29 07:22:56;;;;;;;19.13;10.48;;;;;;;;;;6146349;22;20003;-94
2022/10/29 07:25:40;;;;;;;20.23;11.07;;;;;;;;;;6266427;22;20019;-95
2022/10/29 07:41:48;;;;;;;15.60;7.57;;;;;;;;;;6071175;23;20059;-96
2022/10/29 07:44:46;;;;;;;15.82;9.00;;;;;;;;;;6075434;23;20039;-95
2022/10/29 07:47:18;;;;;;;18.40;8.30;;;;;;;;;;6086416;23;20017;-95
2022/10/29 07:50:06;;;;;;;17.23;9.10;;;;;;;;;;6270626;22;21691;-96
2022/10/29 07:52:32;;;;;;;14.82;8.35;;;;;;;;;;6322103;22;20003;-95
2022/10/29 07:55:01;;;;;;;14.25;7.70;;;;;;;;;;6320243;22;20006;-94
2022/10/29 07:57:41;;;;;;;14.80;8.13;;;;;;;;;;6344042;22;20420;-92
2022/10/29 08:00:13;;;;;;;15.05;8.00;;;;;;;;;;6319943;22;20081;-95
2022/10/29 08:02:41;;;;;;;;;;;;;;;;;;6346477;22;20481;-96
2022/10/29 08:05:08;;;;;;;9.10;5.95;;;;;;;;;;6317285;22;19933;-96
2022/10/29 08:07:35;;;;;;;10.00;5.95;;;;;;;;;;6317926;22;20009;-94
2022/10/29 08:10:01;;;;;;;10.32;5.88;;;;;;;;;;6316813;22;20454;-95
2022/10/29 08:12:29;;;;;;;11.35;6.57;;;;;;;;;;6324070;22;20003;-96
2022/10/29 08:18:36;;;;;;;8.80;5.60;;;;;;;;;;6337052;22;20470;-96
2022/10/29 08:24:09;;;;;;;9.38;6.45;;;;;;;;;;6346319;22;20056;-95
2022/10/29 08:29:11;;;;;;;10.43;6.55;;;;;;;;;;6326315;22;20073;-92
2022/10/29 08:31:37;;;;;;;11.50;5.95;;;;;;;;;;6316367;22;20010;-92
2022/10/29 08:34:03;;;;;;;8.75;5.55;;;;;;;;;;6324605;22;20019;-91
2022/10/29 08:36:29;;;;;;;8.45;5.20;;;;;;;;;;6323344;22;19999;-94
2022/10/29 08:39:04;;;;;;;9.80;6.00;;;;;;;;;;6318904;22;20063;-95
2022/10/29 08:41:35;;;;;;;9.13;5.82;;;;;;;;;;6315946;22;20051;-93
2022/10/29 08:44:07;;;;;;;11.45;5.50;;;;;;;;;;6317613;22;20019;-95
2022/10/29 08:47:07;;;;;;;8.93;5.77;;;;;;;;;;6317028;22;19999;-96
2022/10/29 08:49:40;;;;;;;8.10;5.13;;;;;;;;;;6341330;22;20014;-94
2022/10/29 08:52:12;;;;;;;11.13;6.10;;;;;;;;;;6314416;22;20056;-94
2022/10/29 08:55:01;;;;;;;10.25;6.10;;;;;;;;;;6315310;22;20408;-95
2022/10/29 08:57:31;;;;;;;9.63;5.88;;;;;;;;;;6315163;22;20025;-93
2022/10/29 09:00:02;;;;;;;8.88;5.88;;;;;;;;;;6318797;22;20451;-95
2022/10/29 09:02:33;;;;;;;16.58;10.75;;;;;;;;;;6320156;22;19998;-96
2022/10/29 09:05:31;;;;;;;8.50;5.57;;;;;;;;;;6292331;22;20018;-96
2022/10/29 09:08:17;;;;;;;8.20;5.30;;;;;;;;;;6231148;22;20097;-94
2022/10/29 09:11:03;;;;;;;9.93;6.40;;;;;;;;;;6317941;22;20007;-95
2022/10/29 09:13:42;;;;;;;10.85;6.57;;;;;;;;;;6318325;22;20007;-95
2022/10/29 09:16:27;;;;;;;;;;;;;;;;;;;;;
2022/10/29 09:18:59;;;;;;;11.02;6.60;;;;;;;;;;6343498;22;20023;-95
2022/10/29 09:21:52;;;;;;;11.15;7.00;;;;;;;;;;6317282;22;20473;-96
2022/10/29 09:24:39;;;;;;;10.80;6.20;;;;;;;;;;6315436;22;20033;-92
2022/10/29 09:27:11;;;;;;;10.10;6.20;;;;;;;;;;6320744;22;20014;-91
2022/10/29 09:29:55;;;;;;;11.93;7.07;;;;;;;;;;6312698;22;20007;-96
2022/10/29 09:32:25;;;;;;;10.18;6.13;;;;;;;;;;6313326;22;20094;-93
2022/10/29 09:34:55;;;;;;;10.25;6.35;;;;;;;;;;6312691;22;20082;-90
2022/10/29 09:37:23;;;;;;;31.10;17.15;;;;;;;;;;6313142;22;20003;-92
2022/10/29 09:39:49;;;;;;;11.40;6.82;;;;;;;;;;6313628;22;20081;-90
2022/10/29 09:42:22;;;;;;;11.73;7.70;;;;;;;;;;6314796;22;20002;-91
2022/10/29 09:44:48;;;;;;;;;;;;;;;;;;6314870;22;20006;-89
2022/10/29 09:47:33;;;;;;;12.98;7.55;;;;;;;;;;6313559;22;19929;-95
2022/10/29 09:50:05;;;;;;;14.80;8.60;;;;;;;;;;6314403;22;20013;-93
2022/10/29 09:52:33;;;;;;;14.68;8.27;;;;;;;;;;6314399;22;20019;-96
2022/10/29 09:58:03;;;;;;;17.63;8.25;;;;;;;;;;6341760;22;20006;-91
2022/10/29 10:00:30;;;;;;;15.15;8.48;;;;;;;;;;6314069;22;19999;-92
2022/10/29 10:03:15;;;;;;;13.60;8.02;;;;;;;;;;6315711;22;20036;-93
2022/10/29 10:06:04;;;;;;;12.95;7.72;;;;;;;;;;6317030;22;20444;-96
2022/10/29 10:08:31;;;;;;;13.05;7.63;;;;;;;;;;6315792;22;20003;-92
2022/10/29 10:11:01;;;;;;;14.63;8.25;;;;;;;;;;6315033;22;20371;-93
2022/10/29 10:13:35;;;;;;;12.50;8.10;;;;;;;;;;6318421;22;20003;-93
2022/10/29 10:16:06;;;;;;;12.65;7.40;;;;;;;;;;6318948;22;20003;-94
2022/10/29 10:18:44;;;;;;;14.18;8.00;;;;;;;;;;6315334;22;20007;-93
2022/10/29 10:21:27;;;;;;;12.50;7.82;;;;;;;;;;6318044;22;19998;-96
2022/10/29 10:23:56;;;;;;;11.43;6.88;;;;;;;;;;6317385;22;20007;-90
2022/10/29 10:26:34;;;;;;;14.20;7.95;;;;;;;;;;6315292;22;20452;-94
2022/10/29 10:29:05;;;;;;;11.52;7.57;;;;;;;;;;6315687;22;20439;-94
2022/10/29 10:31:31;;;;;;;17.45;8.77;;;;;;;;;;6316318;22;19998;-93
2022/10/29 10:34:27;;;;;;;14.38;8.50;;;;;;;;;;6321614;22;20006;-96
2022/10/29 10:40:07;;;;;;;15.77;8.73;;;;;;;;;;6354789;22;19994;-96
2022/10/29 10:42:40;;;;;;;12.52;7.30;;;;;;;;;;6318715;22;20007;-94
2022/10/29 10:45:39;;;;;;;16.20;8.45;;;;;;;;;;6333553;22;20029;-93
2022/10/29 10:48:08;;;;;;;15.43;7.78;;;;;;;;;;6266303;22;20035;-95
2022/10/29 10:50:34;;;;;;;14.50;8.32;;;;;;;;;;6284293;22;20090;-92
2022/10/29 10:53:22;;;;;;;14.63;7.90;;;;;;;;;;6308230;22;20023;-96
2022/10/29 10:56:38;;;;;;;18.50;7.72;;;;;;;;;;6321198;22;20496;-96
2022/10/29 10:59:30;;;;;;;17.30;11.27;;;;;;;;;;6320586;22;20006;-96
2022/10/29 11:02:37;;;;;;;12.88;8.23;;;;;;;;;;6253736;22;20058;-96
2022/10/29 11:10:50;;;;;;;11.13;6.93;;;;;;;;;;6320071;22;20018;-93
2022/10/29 11:13:18;;;;;;;12.63;7.38;;;;;;;;;;6314142;22;20003;-91
2022/10/29 11:15:50;;;;;;;10.00;6.75;;;;;;;;;;6314349;22;20362;-92
2022/10/29 11:18:19;;;;;;;12.82;7.38;;;;;;;;;;6313704;22;20041;-92
2022/10/29 11:20:50;;;;;;;19.20;11.40;;;;;;;;;;6313981;22;20010;-95
2022/10/29 11:23:22;;;;;;;18.90;11.23;;;;;;;;;;6314256;22;20002;-94
2022/10/29 11:25:59;;;;;;;14.82;8.35;;;;;;;;;;6314082;22;19994;-91
2022/10/29 11:28:29;;;;;;;16.60;9.27;;;;;;;;;;6314892;22;19987;-93
2022/10/29 11:30:58;;;;;;;15.80;9.02;;;;;;;;;;6313994;22;20009;-91
2022/10/29 11:33:31;;;;;;;17.17;8.48;;;;;;;;;;6313597;22;19999;-90
2022/10/29 11:35:57;;;;;;;;;;;;;;;;;;6313442;22;20006;-92
2022/10/29 11:38:28;;;;;;;14.38;8.05;;;;;;;;;;6340728;22;19902;-92
2022/10/29 11:40:54;;;;;;;25.13;8.95;;;;;;;;;;6314171;22;19999;-91
2022/10/29 11:43:21;;;;;;;14.77;8.02;;;;;;;;;;6313468;22;20010;-90
2022/10/29 11:46:02;;;;;;;13.27;7.53;;;;;;;;;;6313205;22;20040;-91
2022/10/29 11:48:35;;;;;;;11.82;7.57;;;;;;;;;;6314600;22;20055;-91
2022/10/29 11:51:10;;;;;;;13.52;7.53;;;;;;;;;;6313494;22;20002;-93
2022/10/29 11:53:49;;;;;;;16.05;7.88;;;;;;;;;;6314051;22;20003;-93
2022/10/29 11:56:18;;;;;;;16.50;8.27;;;;;;;;;;6313845;22;20344;-96
2022/10/29 11:58:47;;;;;;;15.48;7.47;;;;;;;;;;6313666;22;20454;-91
2022/10/29 12:01:20;;;;;;;16.33;9.10;;;;;;;;;;6313321;22;20009;-93
2022/10/29 12:03:46;;;;;;;15.45;8.63;;;;;;;;;;6313523;22;20003;-95
2022/10/29 12:06:15;;;;;;;16.52;8.40;;;;;;;;;;6313140;22;20022;-89
2022/10/29 12:09:00;;;;;;;13.73;7.93;;;;;;;;;;6313546;22;20085;-90
2022/10/29 12:11:37;;;;;;;13.88;8.25;;;;;;;;;;6313766;22;20021;-91
2022/10/29 12:14:25;;;;;;;14.90;7.90;;;;;;;;;;6315487;22;20066;-93
2022/10/29 12:19:30;;;;;;;12.05;7.10;;;;;;;;;;6311167;22;20023;-96
2022/10/29 12:22:19;;;;;;;11.90;7.13;;;;;;;;;;6282097;22;20003;-93
2022/10/29 12:24:53;;;;;;;13.25;7.78;;;;;;;;;;6283068;22;20018;-94
2022/10/29 12:27:25;;;;;;;15.13;9.00;;;;;;;;;;6282891;22;20420;-93
2022/10/29 12:30:01;;;;;;;15.48;8.80;;;;;;;;;;6283214;22;20058;-95
2022/10/29 12:32:46;;;;;;;12.90;7.75;;;;;;;;;;6281719;22;20333;-94
2022/10/29 12:35:42;;;;;;;15.70;8.13;;;;;;;;;;6283862;22;20003;-96
2022/10/29 12:38:27;;;;;;;11.75;7.30;;;;;;;;;;6283733;22;20007;-93
2022/10/29 12:40:58;;;;;;;13.48;7.18;;;;;;;;;;6283219;22;20011;-92
2022/10/29 12:43:32;;;;;;;12.95;7.70;;;;;;;;;;6283391;22;20003;-95
2022/10/29 12:46:05;;;;;;;12.15;7.15;;;;;;;;;;6309714;22;20011;-93
2022/10/29 12:48:31;;;;;;;12.60;7.18;;;;;;;;;;6283037;22;20003;-92
2022/10/29 12:51:03;;;;;;;14.02;7.85;;;;;;;;;;6282934;22;20086;-95
2022/10/29 12:53:32;;;;;;;16.02;10.18;;;;;;;;;;6282908;22;20007;-93
2022/10/29 12:55:58;;;;;;;13.57;7.18;;;;;;;;;;6288668;22;20014;-92
2022/10/29 12:58:44;;;;;;;12.40;6.88;;;;;;;;;;6294483;22;19995;-93
2022/10/29 13:01:25;;;;;;;16.38;9.82;;;;;;;;;;6284535;22;20138;-91
2022/10/29 13:03:54;;;;;;;13.10;7.32;;;;;;;;;;6283402;22;20007;-91
2022/10/29 13:06:39;;;;;;;14.30;7.50;;;;;;;;;;6283035;22;20023;-94
2022/10/29 13:09:17;;;;;;;14.38;8.95;;;;;;;;;;6311747;22;20018;-93
2022/10/29 13:11:53;;;;;;;18.27;10.30;;;;;;;;;;6285273;22;20026;-92
2022/10/29 13:14:22;;;;;;;15.20;7.93;;;;;;;;;;6284151;22;20031;-91
2022/10/29 13:16:50;;;;;;;14.45;9.35;;;;;;;;;;6283711;22;20057;-94
2022/10/29 13:19:25;;;;;;;13.82;8.15;;;;;;;;;;6286046;22;20336;-93
2022/10/29 13:22:02;;;;;;;13.40;7.90;;;;;;;;;;6286087;22;20003;-93
2022/10/29 13:24:29;;;;;;;11.82;6.93;;;;;;;;;;6287754;22;20045;-92
2022/10/29 13:27:02;;;;;;;13.70;8.13;;;;;;;;;;6285537;22;20072;-96
2022/10/29 13:29:47;;;;;;;15.40;8.07;;;;;;;;;;6270911;22;20008;-95
2022/10/29 13:32:29;;;;;;;10.95;7.32;;;;;;;;;;6296352;22;20007;-96
2022/10/29 13:34:58;;;;;;;13.23;8.27;;;;;;;;;;6293224;22;20075;-95
2022/10/29 13:38:03;;;;;;;12.57;7.90;;;;;;;;;;6326638;22;20003;-95
2022/10/29 13:40:40;;;;;;;15.13;8.77;;;;;;;;;;6298973;22;19997;-96
2022/10/29 13:48:32;;;;;;;16.42;9.55;;;;;;;;;;6311995;22;20030;-92
2022/10/29 13:50:59;;;;;;;16.60;9.48;;;;;;;;;;6327657;22;20049;-96
2022/10/29 13:53:36;;;;;;;19.02;10.55;;;;;;;;;;6322416;22;20011;-92
2022/10/29 13:56:02;;;;;;;16.27;8.70;;;;;;;;;;6318357;22;20006;-95
2022/10/29 13:58:31;;;;;;;15.30;9.00;;;;;;;;;;6317373;22;20420;-91
2022/10/29 14:01:01;;;;;;;18.40;9.60;;;;;;;;;;6316929;22;20043;-93
2022/10/29 14:03:30;;;;;;;16.95;8.63;;;;;;;;;;6330391;22;19987;-94
2022/10/29 14:06:00;;;;;;;18.42;9.85;;;;;;;;;;6330560;22;20017;-94
2022/10/29 14:08:26;;;;;;;18.48;9.93;;;;;;;;;;6317532;22;20038;-96
2022/10/29 14:10:56;;;;;;;16.13;9.02;;;;;;;;;;6315184;22;20010;-91
2022/10/29 14:13:39;;;;;;;15.25;9.60;;;;;;;;;;6316099;22;20010;-94
2022/10/29 14:16:05;;;;;;;16.52;9.40;;;;;;;;;;6316457;22;20320;-96
2022/10/29 14:18:33;;;;;;;16.63;9.30;;;;;;;;;;6315803;22;20017;-95
2022/10/29 14:21:00;;;;;;;17.95;9.57;;;;;;;;;;6315727;22;20037;-92
2022/10/29 14:23:28;;;;;;;16.00;8.82;;;;;;;;;;6314657;22;20009;-91
2022/10/29 14:25:55;;;;;;;13.70;8.32;;;;;;;;;;6313035;22;20018;-93
2022/10/29 14:28:31;;;;;;;20.27;8.68;;;;;;;;;;6314379;22;20010;-91
2022/10/29 14:31:01;;;;;;;13.45;8.13;;;;;;;;;;6316354;22;20025;-92
2022/10/29 14:33:29;;;;;;;15.23;9.02;;;;;;;;;;6315012;22;20010;-92
2022/10/29 14:36:04;;;;;;;16.98;9.80;;;;;;;;;;6314396;22;20068;-90
2022/10/29 14:38:56;;;;;;;17.90;10.25;;;;;;;;;;6314341;22;20009;-91
2022/10/29 14:41:24;;;;;;;23.15;11.68;;;;;;;;;;6307252;22;20006;-90
2022/10/29 14:44:08;;;;;;;21.17;11.10;;;;;;;;;;6313609;22;20003;-92
2022/10/29 14:46:36;;;;;;;21.85;11.18;;;;;;;;;;6308031;22;20118;-92
2022/10/29 14:49:02;;;;;;;23.52;11.35;;;;;;;;;;6309057;22;20004;-93
2022/10/29 14:51:29;;;;;;;21.00;12.35;;;;;;;;;;6308595;22;20007;-89
2022/10/29 14:54:01;;;;;;;22.23;12.10;;;;;;;;;;6308309;22;20004;-89
2022/10/29 14:56:31;;;;;;;23.95;12.57;;;;;;;;;;6308689;22;20006;-91
2022/10/29 14:58:57;;;;;;;27.98;13.15;;;;;;;;;;6308488;22;20007;-93
2022/10/29 15:01:23;;;;;;;25.88;13.30;;;;;;;;;;6309309;22;20003;-91
2022/10/29 15:03:57;;;;;;;23.25;12.63;;;;;;;;;;6310189;22;20090;-90
2022/10/29 15:06:27;;;;;;;27.80;13.23;;;;;;;;;;6309600;22;20459;-92
2022/10/29 15:09:05;;;;;;;24.27;12.38;;;;;;;;;;6309071;22;20091;-92
2022/10/29 15:11:34;;;;;;;26.98;13.30;;;;;;;;;;6308941;22;20010;-93
2022/10/29 15:14:01;;;;;;;24.35;12.82;;;;;;;;;;6308795;22;19999;-91
2022/10/29 15:16:28;;;;;;;26.15;12.75;;;;;;;;;;6308096;22;20004;-90
2022/10/29 15:18:55;;;;;;;24.25;12.30;;;;;;;;;;6308411;22;20094;-92
2022/10/29 15:21:31;;;;;;;24.98;12.73;;;;;;;;;;6308679;22;20006;-91
2022/10/29 15:24:01;;;;;;;27.70;13.90;;;;;;;;;;6309317;22;20032;-92
2022/10/29 15:26:28;;;;;;;23.92;13.45;;;;;;;;;;6308251;22;20506;-90
2022/10/29 15:28:55;;;;;;;22.50;12.88;;;;;;;;;;6308866;22;20007;-91
2022/10/29 15:31:26;;;;;;;21.00;11.90;;;;;;;;;;6307938;22;20082;-92
2022/10/29 15:33:53;;;;;;;26.10;13.00;;;;;;;;;;6308358;22;20003;-92
2022/10/29 15:36:19;;;;;;;26.88;12.30;;;;;;;;;;6308176;22;20010;-94
2022/10/29 15:38:45;;;;;;;20.75;11.82;;;;;;;;;;6308508;22;19999;-92
2022/10/29 15:41:11;;;;;;;25.52;12.40;;;;;;;;;;6308639;22;20400;-92
2022/10/29 15:43:48;;;;;;;23.65;11.82;;;;;;;;;;6308156;22;20055;-93
2022/10/29 15:46:28;;;;;;;23.05;12.45;;;;;;;;;;6307009;22;20077;-93
2022/10/29 15:48:54;;;;;;;20.38;11.70;;;;;;;;;;6313398;22;20002;-91
2022/10/29 15:51:23;;;;;;;24.25;12.93;;;;;;;;;;6313648;22;20058;-92
2022/10/29 15:53:49;;;;;;;25.75;12.68;;;;;;;;;;6313350;22;20082;-91
2022/10/29 15:56:16;;;;;;;23.60;12.32;;;;;;;;;;6312966;22;19999;-92
2022/10/29 15:58:42;;;;;;;31.58;16.27;;;;;;;;;;6314355;22;20006;-91
2022/10/29 16:01:08;;;;;;;27.02;13.60;;;;;;;;;;6313216;22;20438;-93
2022/10/29 16:03:36;;;;;;;27.75;13.18;;;;;;;;;;6313779;22;20023;-93
2022/10/29 16:06:03;;;;;;;26.42;13.32;;;;;;;;;;6313626;22;20041;-93
2022/10/29 16:08:36;;;;;;;32.22;14.95;;;;;;;;;;6314082;22;20002;-92
2022/10/29 16:11:04;;;;;;;28.08;15.10;;;;;;;;;;6313846;22;20010;-94
2022/10/29 16:13:32;;;;;;;31.20;14.95;;;;;;;;;;6314016;22;20458;-91
2022/10/29 16:15:58;;;;;;;29.55;16.02;;;;;;;;;;6314637;22;20362;-91
2022/10/29 16:18:26;;;;;;;27.75;14.73;;;;;;;;;;6314498;22;20011;-96
2022/10/29 16:21:13;;;;;;;28.50;15.18;;;;;;;;;;6313777;22;20103;-95